createdAt,value
2024-05-09T00:00:55.204Z,0
2024-05-09T00:02:09.498Z,0
2024-05-09T00:03:23.779Z,0
2024-05-09T00:04:38.073Z,0
2024-05-09T00:05:52.375Z,0
2024-05-09T00:07:06.668Z,0
2024-05-09T00:08:19.976Z,0
2024-05-09T00:09:34.269Z,0
2024-05-09T00:10:48.546Z,0
2024-05-09T00:13:17.146Z,0
2024-05-09T00:14:31.439Z,0
2024-05-09T00:15:45.731Z,0
2024-05-09T00:17:00.024Z,0
2024-05-09T00:18:14.316Z,0
2024-05-09T00:19:28.595Z,0
2024-05-09T00:20:42.902Z,0
2024-05-09T00:21:57.194Z,0
2024-05-09T00:23:11.487Z,0
2024-05-09T00:24:24.795Z,0
2024-05-09T00:25:39.089Z,0
2024-05-09T00:26:53.381Z,0
2024-05-09T00:28:07.674Z,0
2024-05-09T00:29:21.966Z,0
2024-05-09T00:30:36.259Z,0
2024-05-09T00:31:50.552Z,0
2024-05-09T00:33:04.844Z,0
2024-05-09T00:34:19.131Z,0
2024-05-09T00:35:33.429Z,0
2024-05-09T00:36:47.722Z,0
2024-05-09T00:38:02.014Z,0
2024-05-09T00:39:16.307Z,0
2024-05-09T00:40:29.615Z,0
2024-05-09T00:42:58.201Z,0
2024-05-09T00:44:12.493Z,0
2024-05-09T00:45:26.786Z,0
2024-05-09T00:46:41.078Z,0
2024-05-09T00:47:55.371Z,0
2024-05-09T00:49:09.663Z,0
2024-05-09T00:50:23.955Z,0
2024-05-09T00:51:38.248Z,0
2024-05-09T00:52:52.541Z,0
2024-05-09T00:54:06.833Z,0
2024-05-09T00:55:21.126Z,0
2024-05-09T00:56:34.425Z,0
2024-05-09T00:57:48.727Z,0
2024-05-09T00:59:03.019Z,0
2024-05-09T01:00:17.312Z,0
2024-05-09T01:01:31.604Z,0
2024-05-09T01:02:45.897Z,0
2024-05-09T01:04:00.176Z,0
2024-05-09T01:05:14.482Z,0
2024-05-09T01:06:28.775Z,0
2024-05-09T01:07:43.067Z,0
2024-05-09T01:08:57.360Z,0
2024-05-09T01:10:11.652Z,0
2024-05-09T01:11:25.945Z,0
2024-05-09T01:12:39.253Z,0
2024-05-09T01:13:53.546Z,0
2024-05-09T01:15:07.838Z,0
2024-05-09T01:16:22.131Z,0
2024-05-09T01:17:36.423Z,0
2024-05-09T01:18:50.716Z,0
2024-05-09T01:20:05.008Z,0
2024-05-09T01:21:19.277Z,0
2024-05-09T01:22:33.593Z,0
2024-05-09T01:23:47.886Z,0
2024-05-09T01:25:02.135Z,0
2024-05-09T01:26:16.471Z,0
2024-05-09T01:27:30.763Z,0
2024-05-09T01:28:44.072Z,0
2024-05-09T01:29:58.365Z,0
2024-05-09T01:31:12.657Z,0
2024-05-09T01:32:26.950Z,0
2024-05-09T01:33:41.242Z,0
2024-05-09T01:34:55.535Z,0
2024-05-09T01:36:09.827Z,0
2024-05-09T01:37:24.120Z,0
2024-05-09T01:38:38.412Z,0
2024-05-09T01:39:52.705Z,0
2024-05-09T01:41:06.997Z,0
2024-05-09T01:42:21.258Z,0
2024-05-09T01:43:35.547Z,0
2024-05-09T01:44:49.875Z,0
2024-05-09T01:46:03.184Z,0
2024-05-09T01:47:17.476Z,0
2024-05-09T01:48:31.769Z,0
2024-05-09T01:49:46.061Z,0
2024-05-09T01:51:00.354Z,0
2024-05-09T01:52:13.668Z,0
2024-05-09T01:53:27.960Z,0
2024-05-09T01:54:42.253Z,0
2024-05-09T01:55:56.545Z,0
2024-05-09T01:57:10.838Z,0
2024-05-09T01:58:25.131Z,0
2024-05-09T01:59:39.423Z,0
2024-05-09T02:00:53.716Z,0
2024-05-09T02:02:07.982Z,0
2024-05-09T02:03:22.301Z,0
2024-05-09T02:04:36.557Z,0
2024-05-09T02:05:50.886Z,0
2024-05-09T02:07:05.179Z,0
2024-05-09T02:08:18.487Z,0
2024-05-09T02:09:32.780Z,0
2024-05-09T02:10:47.073Z,0
2024-05-09T02:12:01.366Z,0
2024-05-09T02:13:15.658Z,0
2024-05-09T02:14:29.951Z,0
2024-05-09T02:15:44.243Z,0
2024-05-09T02:16:58.536Z,0
2024-05-09T02:18:12.829Z,0
2024-05-09T02:19:27.121Z,0
2024-05-09T02:20:41.415Z,0
2024-05-09T02:23:10.000Z,0
2024-05-09T02:24:23.309Z,0
2024-05-09T02:25:37.601Z,0
2024-05-09T02:26:51.894Z,0
2024-05-09T02:28:06.186Z,0
2024-05-09T02:29:20.479Z,0
2024-05-09T02:31:49.019Z,0
2024-05-09T02:33:03.357Z,0
2024-05-09T02:34:17.649Z,0
2024-05-09T02:35:31.942Z,0
2024-05-09T02:36:46.234Z,0
2024-05-09T02:38:00.527Z,0
2024-05-09T02:39:14.820Z,0
2024-05-09T02:40:28.128Z,0
2024-05-09T02:41:42.421Z,0
2024-05-09T02:42:56.714Z,0
2024-05-09T02:44:11.007Z,0
2024-05-09T02:45:25.300Z,0
2024-05-09T02:46:39.538Z,0
2024-05-09T02:47:53.831Z,0
2024-05-09T02:49:08.123Z,0
2024-05-09T02:50:22.373Z,0
2024-05-09T02:51:36.612Z,0
2024-05-09T02:52:50.850Z,0
2024-05-09T02:54:05.143Z,0
2024-05-09T02:55:19.436Z,0
2024-05-09T02:56:32.702Z,0
2024-05-09T02:57:46.941Z,0
2024-05-09T02:59:01.179Z,0
2024-05-09T03:00:15.419Z,0
2024-05-09T03:01:29.658Z,0
2024-05-09T03:02:43.897Z,0
2024-05-09T03:03:58.135Z,0
2024-05-09T03:05:12.374Z,0
2024-05-09T03:06:26.612Z,0
2024-05-09T03:07:40.851Z,0
2024-05-09T03:08:55.089Z,0
2024-05-09T03:10:09.328Z,0
2024-05-09T03:11:23.567Z,0
2024-05-09T03:12:36.822Z,0
2024-05-09T03:13:51.060Z,0
2024-05-09T03:15:05.299Z,0
2024-05-09T03:16:19.537Z,0
2024-05-09T03:17:33.776Z,0
2024-05-09T03:18:48.014Z,0
2024-05-09T03:20:02.253Z,0
2024-05-09T03:21:16.492Z,0
2024-05-09T03:22:30.731Z,0
2024-05-09T03:23:44.969Z,0
2024-05-09T03:24:59.208Z,0
2024-05-09T03:26:13.446Z,5
2024-05-09T03:27:27.685Z,5
2024-05-09T03:28:40.940Z,5
2024-05-09T03:29:55.178Z,5
2024-05-09T03:31:09.417Z,5
2024-05-09T03:32:23.655Z,5
2024-05-09T03:33:37.894Z,5
2024-05-09T03:34:52.133Z,5
2024-05-09T03:36:06.371Z,5
2024-05-09T03:37:20.610Z,5
2024-05-09T03:38:34.848Z,11
2024-05-09T03:39:49.087Z,11
2024-05-09T03:41:03.326Z,11
2024-05-09T03:42:17.564Z,11
2024-05-09T03:43:31.803Z,16
2024-05-09T03:44:45.058Z,16
2024-05-09T03:45:59.296Z,22
2024-05-09T03:47:13.501Z,22
2024-05-09T03:48:27.731Z,28
2024-05-09T03:49:42.012Z,28
2024-05-09T03:50:56.251Z,28
2024-05-09T03:52:10.489Z,28
2024-05-09T03:53:24.728Z,28
2024-05-09T03:54:38.932Z,33
2024-05-09T03:55:53.205Z,33
2024-05-09T03:57:07.444Z,39
2024-05-09T03:58:21.682Z,39
2024-05-09T03:59:35.921Z,45
2024-05-09T04:00:49.176Z,45
2024-05-09T04:02:03.414Z,50
2024-05-09T04:03:17.653Z,50
2024-05-09T04:04:31.891Z,50
2024-05-09T04:05:46.130Z,56
2024-05-09T04:07:00.369Z,56
2024-05-09T04:08:14.608Z,61
2024-05-09T04:09:28.807Z,67
2024-05-09T04:10:43.085Z,67
2024-05-09T04:11:57.324Z,73
2024-05-09T04:13:11.529Z,78
2024-05-09T04:14:25.801Z,84
2024-05-09T04:15:40.040Z,90
2024-05-09T04:18:07.533Z,101
2024-05-09T04:19:21.772Z,106
2024-05-09T04:20:36.010Z,106
2024-05-09T04:21:50.249Z,112
2024-05-09T04:23:04.487Z,118
2024-05-09T04:24:18.726Z,118
2024-05-09T04:25:32.964Z,123
2024-05-09T04:26:47.203Z,129
2024-05-09T04:28:01.442Z,135
2024-05-09T04:29:15.680Z,140
2024-05-09T04:30:29.919Z,146
2024-05-09T04:32:58.396Z,163
2024-05-09T04:34:11.651Z,168
2024-05-09T04:35:25.889Z,174
2024-05-09T04:36:40.129Z,180
2024-05-09T04:37:54.368Z,191
2024-05-09T04:39:08.606Z,196
2024-05-09T04:40:22.845Z,202
2024-05-09T04:41:37.083Z,208
2024-05-09T04:42:51.293Z,208
2024-05-09T04:44:05.560Z,213
2024-05-09T04:45:19.799Z,213
2024-05-09T04:46:33.994Z,208
2024-05-09T04:47:48.276Z,208
2024-05-09T04:49:02.514Z,208
2024-05-09T04:50:15.769Z,213
2024-05-09T04:51:30.007Z,219
2024-05-09T04:52:44.246Z,225
2024-05-09T04:53:58.484Z,230
2024-05-09T04:55:12.723Z,236
2024-05-09T04:56:26.961Z,399
2024-05-09T04:57:41.200Z,438
2024-05-09T04:58:55.439Z,500
2024-05-09T05:00:09.677Z,500
2024-05-09T05:01:23.915Z,506
2024-05-09T05:02:38.154Z,511
2024-05-09T05:03:52.392Z,511
2024-05-09T05:05:06.631Z,444
2024-05-09T05:06:19.885Z,511
2024-05-09T05:07:34.125Z,511
2024-05-09T05:08:48.363Z,534
2024-05-09T05:10:02.601Z,545
2024-05-09T05:11:16.840Z,545
2024-05-09T05:12:31.078Z,562
2024-05-09T05:13:45.316Z,573
2024-05-09T05:14:59.554Z,562
2024-05-09T05:16:13.793Z,556
2024-05-09T05:17:28.031Z,568
2024-05-09T05:18:42.269Z,478
2024-05-09T05:19:56.508Z,461
2024-05-09T05:21:10.746Z,556
2024-05-09T05:22:23.955Z,618
2024-05-09T05:23:38.238Z,641
2024-05-09T05:24:52.477Z,596
2024-05-09T05:26:06.715Z,641
2024-05-09T05:27:20.953Z,652
2024-05-09T05:28:35.191Z,658
2024-05-09T05:29:49.429Z,658
2024-05-09T05:31:03.668Z,658
2024-05-09T05:32:17.906Z,585
2024-05-09T05:33:32.144Z,489
2024-05-09T05:34:46.382Z,630
2024-05-09T05:36:00.620Z,675
2024-05-09T05:38:29.096Z,371
2024-05-09T05:39:42.350Z,371
2024-05-09T05:40:56.588Z,388
2024-05-09T05:42:10.827Z,421
2024-05-09T05:43:25.065Z,444
2024-05-09T05:44:39.303Z,405
2024-05-09T05:45:53.541Z,393
2024-05-09T05:47:07.779Z,393
2024-05-09T05:48:22.017Z,393
2024-05-09T05:49:36.255Z,393
2024-05-09T05:50:50.493Z,393
2024-05-09T05:52:04.732Z,506
2024-05-09T05:53:18.970Z,540
2024-05-09T05:54:33.208Z,416
2024-05-09T05:55:46.462Z,393
2024-05-09T05:57:00.659Z,388
2024-05-09T05:58:14.938Z,399
2024-05-09T05:59:29.176Z,410
2024-05-09T06:00:42.436Z,596
2024-05-09T06:01:56.628Z,405
2024-05-09T06:03:10.912Z,416
2024-05-09T06:04:25.151Z,438
2024-05-09T06:05:39.389Z,438
2024-05-09T06:06:53.581Z,438
2024-05-09T06:08:07.865Z,438
2024-05-09T06:09:22.103Z,444
2024-05-09T06:10:36.341Z,455
2024-05-09T06:11:50.579Z,540
2024-05-09T06:13:04.817Z,478
2024-05-09T06:14:19.014Z,489
2024-05-09T06:15:33.294Z,495
2024-05-09T06:16:46.548Z,703
2024-05-09T06:18:00.786Z,590
2024-05-09T06:19:15.025Z,573
2024-05-09T06:20:29.263Z,540
2024-05-09T06:21:43.501Z,528
2024-05-09T06:22:57.739Z,540
2024-05-09T06:24:11.977Z,517
2024-05-09T06:25:26.215Z,540
2024-05-09T06:26:40.455Z,793
2024-05-09T06:27:54.693Z,849
2024-05-09T06:29:08.931Z,821
2024-05-09T06:30:23.169Z,472
2024-05-09T06:31:37.407Z,455
2024-05-09T06:32:50.661Z,438
2024-05-09T06:34:04.899Z,759
2024-05-09T06:35:19.138Z,804
2024-05-09T06:36:33.345Z,877
2024-05-09T06:37:47.615Z,939
2024-05-09T06:39:01.853Z,489
2024-05-09T06:40:16.091Z,523
2024-05-09T06:41:30.329Z,725
2024-05-09T06:42:44.567Z,551
2024-05-09T06:43:58.805Z,669
2024-05-09T06:45:13.043Z,748
2024-05-09T06:46:27.282Z,883
2024-05-09T06:47:41.520Z,888
2024-05-09T06:48:54.774Z,871
2024-05-09T06:50:08.979Z,731
2024-05-09T06:51:23.250Z,607
2024-05-09T06:52:37.488Z,798
2024-05-09T06:53:51.727Z,855
2024-05-09T06:55:05.965Z,832
2024-05-09T06:56:20.203Z,843
2024-05-09T06:57:34.441Z,855
2024-05-09T06:58:48.679Z,866
2024-05-09T07:00:02.917Z,855
2024-05-09T07:01:17.155Z,855
2024-05-09T07:02:31.393Z,838
2024-05-09T07:03:45.631Z,804
2024-05-09T07:04:58.886Z,781
2024-05-09T07:06:13.125Z,781
2024-05-09T07:07:27.363Z,663
2024-05-09T07:08:41.601Z,663
2024-05-09T07:09:55.839Z,860
2024-05-09T07:11:10.077Z,815
2024-05-09T07:12:24.315Z,877
2024-05-09T07:13:38.553Z,900
2024-05-09T07:14:52.791Z,894
2024-05-09T07:16:07.029Z,815
2024-05-09T07:17:21.267Z,843
2024-05-09T07:18:35.466Z,843
2024-05-09T07:19:49.744Z,888
2024-05-09T07:21:02.998Z,883
2024-05-09T07:22:17.236Z,922
2024-05-09T07:23:31.474Z,900
2024-05-09T07:24:45.678Z,855
2024-05-09T07:25:59.950Z,753
2024-05-09T07:27:14.188Z,630
2024-05-09T07:28:28.426Z,613
2024-05-09T07:29:42.665Z,607
2024-05-09T07:30:56.903Z,607
2024-05-09T07:32:11.141Z,601
2024-05-09T07:33:25.379Z,601
2024-05-09T07:34:39.617Z,601
2024-05-09T07:35:53.855Z,596
2024-05-09T07:37:07.109Z,596
2024-05-09T07:38:21.309Z,596
2024-05-09T07:39:35.585Z,585
2024-05-09T07:40:49.824Z,568
2024-05-09T07:42:04.062Z,585
2024-05-09T07:43:18.300Z,579
2024-05-09T07:44:32.538Z,573
2024-05-09T07:45:46.776Z,568
2024-05-09T07:47:01.014Z,568
2024-05-09T07:48:15.252Z,568
2024-05-09T07:49:29.490Z,556
2024-05-09T07:50:43.728Z,562
2024-05-09T07:51:57.966Z,556
2024-05-09T07:53:11.220Z,545
2024-05-09T07:54:25.458Z,551
2024-05-09T07:55:39.696Z,568
2024-05-09T07:56:53.934Z,562
2024-05-09T07:58:08.134Z,562
2024-05-09T07:59:22.410Z,556
2024-05-09T08:00:36.648Z,556
2024-05-09T08:01:50.887Z,551
2024-05-09T08:03:05.125Z,551
2024-05-09T08:04:19.331Z,551
2024-05-09T08:05:33.601Z,551
2024-05-09T08:06:47.839Z,551
2024-05-09T08:08:02.076Z,545
2024-05-09T08:09:15.331Z,545
2024-05-09T08:10:29.569Z,551
2024-05-09T08:11:43.807Z,551
2024-05-09T08:12:58.045Z,551
2024-05-09T08:14:12.283Z,545
2024-05-09T08:15:26.521Z,545
2024-05-09T08:16:40.759Z,545
2024-05-09T08:17:54.997Z,540
2024-05-09T08:19:09.235Z,540
2024-05-09T08:20:23.443Z,545
2024-05-09T08:21:37.711Z,545
2024-05-09T08:22:51.949Z,545
2024-05-09T08:24:06.187Z,545
2024-05-09T08:25:19.442Z,540
2024-05-09T08:26:33.680Z,540
2024-05-09T08:27:47.918Z,545
2024-05-09T08:29:02.156Z,545
2024-05-09T08:30:16.394Z,545
2024-05-09T08:31:30.633Z,551
2024-05-09T08:32:44.871Z,545
2024-05-09T08:33:59.109Z,540
2024-05-09T08:35:13.309Z,540
2024-05-09T08:36:27.585Z,523
2024-05-09T08:37:41.794Z,540
2024-05-09T08:38:56.061Z,540
2024-05-09T08:40:10.299Z,540
2024-05-09T08:41:23.553Z,545
2024-05-09T08:42:37.791Z,545
2024-05-09T08:43:52.029Z,545
2024-05-09T08:45:06.268Z,545
2024-05-09T08:46:20.506Z,545
2024-05-09T08:47:34.744Z,551
2024-05-09T08:48:48.982Z,551
2024-05-09T08:50:03.219Z,551
2024-05-09T08:51:17.458Z,551
2024-05-09T08:52:31.695Z,556
2024-05-09T08:53:45.933Z,551
2024-05-09T08:55:00.172Z,551
2024-05-09T08:56:14.410Z,545
2024-05-09T08:57:27.664Z,545
2024-05-09T08:58:41.902Z,545
2024-05-09T08:59:56.140Z,545
2024-05-09T09:01:10.378Z,545
2024-05-09T09:02:24.616Z,545
2024-05-09T09:03:38.854Z,545
2024-05-09T09:04:53.092Z,545
2024-05-09T09:06:07.331Z,545
2024-05-09T09:07:21.568Z,556
2024-05-09T09:08:35.806Z,556
2024-05-09T09:09:50.044Z,568
2024-05-09T09:11:04.282Z,568
2024-05-09T09:12:18.520Z,573
2024-05-09T09:13:31.775Z,573
2024-05-09T09:14:46.013Z,579
2024-05-09T09:16:00.251Z,579
2024-05-09T09:17:14.489Z,585
2024-05-09T09:18:28.727Z,590
2024-05-09T09:19:42.965Z,405
2024-05-09T09:20:57.203Z,466
2024-05-09T09:22:11.408Z,376
2024-05-09T09:23:25.679Z,511
2024-05-09T09:24:39.917Z,360
2024-05-09T09:25:54.155Z,354
2024-05-09T09:27:08.393Z,630
2024-05-09T09:28:22.631Z,326
2024-05-09T09:29:35.851Z,315
2024-05-09T09:30:50.123Z,309
2024-05-09T09:33:18.599Z,303
2024-05-09T09:34:32.837Z,309
2024-05-09T09:35:47.075Z,309
2024-05-09T09:37:01.313Z,309
2024-05-09T09:38:15.552Z,309
2024-05-09T09:39:29.790Z,309
2024-05-09T09:40:44.028Z,320
2024-05-09T09:41:58.266Z,331
2024-05-09T09:43:12.504Z,331
2024-05-09T09:44:26.742Z,483
2024-05-09T09:45:39.996Z,337
2024-05-09T09:46:54.234Z,624
2024-05-09T09:48:08.472Z,624
2024-05-09T09:49:22.711Z,618
2024-05-09T09:50:36.949Z,630
2024-05-09T09:51:51.187Z,635
2024-05-09T09:53:05.425Z,641
2024-05-09T09:54:19.663Z,646
2024-05-09T09:55:33.901Z,635
2024-05-09T09:56:48.139Z,624
2024-05-09T09:58:02.377Z,613
2024-05-09T09:59:16.615Z,601
2024-05-09T10:00:30.853Z,590
2024-05-09T10:01:44.108Z,579
2024-05-09T10:02:58.346Z,489
2024-05-09T10:04:12.584Z,551
2024-05-09T10:05:26.822Z,562
2024-05-09T10:06:41.060Z,551
2024-05-09T10:07:55.298Z,551
2024-05-09T10:09:08.557Z,551
2024-05-09T10:10:22.795Z,540
2024-05-09T10:11:37.033Z,534
2024-05-09T10:12:51.271Z,528
2024-05-09T10:14:05.509Z,523
2024-05-09T10:15:19.747Z,528
2024-05-09T10:16:33.985Z,511
2024-05-09T10:17:48.223Z,528
2024-05-09T10:19:02.462Z,540
2024-05-09T10:20:16.700Z,551
2024-05-09T10:21:30.938Z,562
2024-05-09T10:22:45.176Z,556
2024-05-09T10:23:59.415Z,528
2024-05-09T10:25:12.670Z,388
2024-05-09T10:26:26.908Z,382
2024-05-09T10:27:41.146Z,562
2024-05-09T10:28:55.384Z,545
2024-05-09T10:30:09.621Z,562
2024-05-09T10:31:23.859Z,551
2024-05-09T10:32:38.098Z,556
2024-05-09T10:33:52.336Z,562
2024-05-09T10:35:06.574Z,551
2024-05-09T10:36:20.812Z,551
2024-05-09T10:37:35.050Z,551
2024-05-09T10:38:49.288Z,556
2024-05-09T10:40:03.526Z,556
2024-05-09T10:41:16.780Z,551
2024-05-09T10:42:31.018Z,534
2024-05-09T10:43:45.257Z,517
2024-05-09T10:44:59.495Z,523
2024-05-09T10:46:13.733Z,523
2024-05-09T10:47:27.971Z,523
2024-05-09T10:48:42.209Z,523
2024-05-09T10:49:56.408Z,523
2024-05-09T10:51:10.651Z,528
2024-05-09T10:52:24.923Z,534
2024-05-09T10:53:39.162Z,534
2024-05-09T10:54:53.400Z,540
2024-05-09T10:56:07.638Z,545
2024-05-09T10:57:20.892Z,438
2024-05-09T10:58:35.130Z,556
2024-05-09T10:59:49.368Z,562
2024-05-09T11:01:03.606Z,573
2024-05-09T11:02:17.845Z,444
2024-05-09T11:03:32.083Z,421
2024-05-09T11:04:46.321Z,466
2024-05-09T11:06:00.559Z,410
2024-05-09T11:07:14.797Z,399
2024-05-09T11:08:29.035Z,388
2024-05-09T11:09:43.273Z,388
2024-05-09T11:10:57.511Z,388
2024-05-09T11:12:11.749Z,382
2024-05-09T11:13:25.004Z,376
2024-05-09T11:14:39.242Z,388
2024-05-09T11:15:53.480Z,545
2024-05-09T11:17:07.718Z,534
2024-05-09T11:18:21.956Z,405
2024-05-09T11:19:36.195Z,365
2024-05-09T11:20:50.433Z,511
2024-05-09T11:22:04.671Z,500
2024-05-09T11:23:18.909Z,495
2024-05-09T11:24:33.147Z,489
2024-05-09T11:25:47.385Z,348
2024-05-09T11:27:01.599Z,326
2024-05-09T11:28:15.861Z,337
2024-05-09T11:29:29.116Z,326
2024-05-09T11:30:43.354Z,410
2024-05-09T11:31:57.592Z,421
2024-05-09T11:33:11.830Z,326
2024-05-09T11:34:26.068Z,326
2024-05-09T11:35:40.306Z,331
2024-05-09T11:36:54.544Z,343
2024-05-09T11:38:08.782Z,483
2024-05-09T11:39:23.020Z,393
2024-05-09T11:40:37.258Z,483
2024-05-09T11:41:51.469Z,478
2024-05-09T11:43:05.735Z,478
2024-05-09T11:44:19.973Z,478
2024-05-09T11:45:33.195Z,478
2024-05-09T11:46:47.466Z,371
2024-05-09T11:48:01.704Z,416
2024-05-09T11:49:15.942Z,343
2024-05-09T11:50:30.181Z,348
2024-05-09T11:51:44.418Z,360
2024-05-09T11:52:58.657Z,478
2024-05-09T11:54:12.895Z,466
2024-05-09T11:55:27.133Z,483
2024-05-09T11:56:41.371Z,483
2024-05-09T11:57:55.609Z,365
2024-05-09T11:59:09.848Z,478
2024-05-09T12:00:24.086Z,478
2024-05-09T12:01:37.341Z,472
2024-05-09T12:02:51.579Z,461
2024-05-09T12:04:05.817Z,455
2024-05-09T12:05:20.055Z,450
2024-05-09T12:06:34.293Z,444
2024-05-09T12:07:48.531Z,444
2024-05-09T12:09:02.769Z,450
2024-05-09T12:10:17.007Z,455
2024-05-09T12:11:31.246Z,455
2024-05-09T12:12:45.484Z,455
2024-05-09T12:13:59.722Z,450
2024-05-09T12:15:13.960Z,450
2024-05-09T12:16:28.198Z,450
2024-05-09T12:17:41.452Z,455
2024-05-09T12:18:55.690Z,461
2024-05-09T12:20:09.929Z,461
2024-05-09T12:21:24.167Z,455
2024-05-09T12:22:38.405Z,438
2024-05-09T12:23:52.643Z,455
2024-05-09T12:25:06.881Z,348
2024-05-09T12:26:21.119Z,365
2024-05-09T12:27:35.357Z,438
2024-05-09T12:28:49.595Z,331
2024-05-09T12:30:03.805Z,331
2024-05-09T12:32:32.309Z,303
2024-05-09T12:33:45.564Z,298
2024-05-09T12:34:59.802Z,292
2024-05-09T12:36:14.040Z,292
2024-05-09T12:37:28.278Z,292
2024-05-09T12:38:42.516Z,298
2024-05-09T12:39:56.754Z,405
2024-05-09T12:41:10.992Z,399
2024-05-09T12:42:25.231Z,399
2024-05-09T12:43:39.431Z,405
2024-05-09T12:44:53.708Z,410
2024-05-09T12:46:07.946Z,416
2024-05-09T12:47:22.184Z,416
2024-05-09T12:48:36.380Z,427
2024-05-09T12:49:50.660Z,421
2024-05-09T12:51:03.914Z,421
2024-05-09T12:52:18.152Z,410
2024-05-09T12:53:32.390Z,410
2024-05-09T12:54:46.628Z,405
2024-05-09T12:56:00.867Z,410
2024-05-09T12:57:15.105Z,405
2024-05-09T12:58:29.343Z,393
2024-05-09T12:59:43.581Z,399
2024-05-09T13:00:57.819Z,388
2024-05-09T13:02:12.012Z,388
2024-05-09T13:03:26.295Z,388
2024-05-09T13:04:40.533Z,382
2024-05-09T13:05:54.771Z,365
2024-05-09T13:07:08.026Z,354
2024-05-09T13:08:22.264Z,354
2024-05-09T13:09:36.502Z,354
2024-05-09T13:10:50.740Z,348
2024-05-09T13:12:04.978Z,348
2024-05-09T13:13:19.216Z,348
2024-05-09T13:14:33.454Z,348
2024-05-09T13:15:47.692Z,348
2024-05-09T13:17:01.930Z,286
2024-05-09T13:18:16.168Z,354
2024-05-09T13:19:30.406Z,354
2024-05-09T13:20:44.645Z,343
2024-05-09T13:21:58.883Z,343
2024-05-09T13:23:12.137Z,343
2024-05-09T13:24:26.375Z,343
2024-05-09T13:25:40.614Z,354
2024-05-09T13:26:54.852Z,360
2024-05-09T13:28:09.090Z,331
2024-05-09T13:29:23.328Z,365
2024-05-09T13:30:37.567Z,365
2024-05-09T13:31:51.805Z,371
2024-05-09T13:33:06.043Z,371
2024-05-09T13:34:20.281Z,292
2024-05-09T13:35:34.519Z,270
2024-05-09T13:36:48.757Z,258
2024-05-09T13:38:02.995Z,331
2024-05-09T13:39:16.250Z,337
2024-05-09T13:40:30.488Z,326
2024-05-09T13:41:44.726Z,253
2024-05-09T13:42:58.964Z,292
2024-05-09T13:44:13.202Z,315
2024-05-09T13:45:27.440Z,315
2024-05-09T13:46:41.679Z,309
2024-05-09T13:47:55.917Z,309
2024-05-09T13:49:10.155Z,303
2024-05-09T13:50:24.393Z,303
2024-05-09T13:51:38.631Z,303
2024-05-09T13:52:52.869Z,303
2024-05-09T13:54:07.107Z,225
2024-05-09T13:55:20.361Z,230
2024-05-09T13:56:34.600Z,264
2024-05-09T13:57:48.838Z,292
2024-05-09T13:59:03.076Z,281
2024-05-09T14:00:17.314Z,213
2024-05-09T14:01:31.516Z,208
2024-05-09T14:02:45.790Z,202
2024-05-09T14:04:00.028Z,202
2024-05-09T14:05:14.266Z,208
2024-05-09T14:06:28.505Z,208
2024-05-09T14:07:42.743Z,213
2024-05-09T14:08:56.981Z,208
2024-05-09T14:10:11.219Z,213
2024-05-09T14:11:24.473Z,213
2024-05-09T14:12:38.711Z,253
2024-05-09T14:13:52.950Z,275
2024-05-09T14:15:07.188Z,264
2024-05-09T14:16:21.426Z,253
2024-05-09T14:17:34.685Z,270
2024-05-09T14:18:48.924Z,275
2024-05-09T14:20:03.162Z,275
2024-05-09T14:21:17.400Z,270
2024-05-09T14:22:31.638Z,270
2024-05-09T14:23:45.876Z,264
2024-05-09T14:25:00.114Z,258
2024-05-09T14:26:14.352Z,258
2024-05-09T14:27:28.590Z,253
2024-05-09T14:28:42.829Z,253
2024-05-09T14:29:57.067Z,253
2024-05-09T14:31:11.305Z,258
2024-05-09T14:32:25.543Z,258
2024-05-09T14:33:38.762Z,253
2024-05-09T14:34:53.036Z,253
2024-05-09T14:36:07.274Z,258
2024-05-09T14:37:21.512Z,258
2024-05-09T14:38:35.750Z,258
2024-05-09T14:39:49.989Z,258
2024-05-09T14:41:04.184Z,253
2024-05-09T14:42:18.465Z,253
2024-05-09T14:43:32.657Z,253
2024-05-09T14:44:46.941Z,247
2024-05-09T14:46:01.180Z,247
2024-05-09T14:47:15.418Z,241
2024-05-09T14:48:29.657Z,241
2024-05-09T14:49:42.911Z,241
2024-05-09T14:50:57.114Z,230
2024-05-09T14:52:11.388Z,236
2024-05-09T14:53:25.626Z,225
2024-05-09T14:54:39.864Z,230
2024-05-09T14:55:54.102Z,230
2024-05-09T14:57:08.340Z,230
2024-05-09T14:58:22.578Z,230
2024-05-09T14:59:36.816Z,236
2024-05-09T15:00:51.055Z,230
2024-05-09T15:02:05.293Z,230
2024-05-09T15:03:19.531Z,230
2024-05-09T15:04:33.769Z,230
2024-05-09T15:05:47.023Z,230
2024-05-09T15:07:01.261Z,230
2024-05-09T15:08:15.499Z,230
2024-05-09T15:09:29.737Z,230
2024-05-09T15:10:43.975Z,230
2024-05-09T15:11:58.214Z,230
2024-05-09T15:13:12.452Z,225
2024-05-09T15:14:26.690Z,230
2024-05-09T15:15:40.928Z,230
2024-05-09T15:16:55.166Z,230
2024-05-09T15:18:09.404Z,230
2024-05-09T15:19:23.642Z,230
2024-05-09T15:20:37.880Z,230
2024-05-09T15:21:52.119Z,230
2024-05-09T15:23:05.373Z,225
2024-05-09T15:24:19.611Z,225
2024-05-09T15:25:33.849Z,225
2024-05-09T15:26:48.088Z,219
2024-05-09T15:28:02.327Z,225
2024-05-09T15:29:16.565Z,225
2024-05-09T15:30:30.803Z,225
2024-05-09T15:31:45.041Z,225
2024-05-09T15:32:59.279Z,219
2024-05-09T15:34:13.517Z,219
2024-05-09T15:35:27.755Z,219
2024-05-09T15:36:41.994Z,219
2024-05-09T15:37:56.232Z,219
2024-05-09T15:39:09.486Z,219
2024-05-09T15:40:23.724Z,219
2024-05-09T15:41:37.962Z,213
2024-05-09T15:42:52.200Z,213
2024-05-09T15:44:06.439Z,213
2024-05-09T15:45:20.677Z,213
2024-05-09T15:46:34.915Z,213
2024-05-09T15:47:49.153Z,213
2024-05-09T15:49:03.391Z,213
2024-05-09T15:50:17.629Z,213
2024-05-09T15:51:31.867Z,213
2024-05-09T15:52:46.105Z,208
2024-05-09T15:54:00.344Z,208
2024-05-09T15:55:13.598Z,208
2024-05-09T15:56:27.836Z,208
2024-05-09T15:57:42.074Z,213
2024-05-09T15:58:56.312Z,213
2024-05-09T16:00:10.550Z,213
2024-05-09T16:01:24.788Z,213
2024-05-09T16:02:39.026Z,213
2024-05-09T16:03:53.264Z,213
2024-05-09T16:05:07.503Z,213
2024-05-09T16:06:21.741Z,213
2024-05-09T16:07:35.979Z,213
2024-05-09T16:08:50.217Z,213
2024-05-09T16:10:04.455Z,213
2024-05-09T16:11:17.709Z,219
2024-05-09T16:12:31.912Z,213
2024-05-09T16:13:46.186Z,213
2024-05-09T16:15:00.424Z,213
2024-05-09T16:16:14.662Z,213
2024-05-09T16:17:28.900Z,213
2024-05-09T16:18:43.138Z,213
2024-05-09T16:19:57.376Z,208
2024-05-09T16:21:11.614Z,208
2024-05-09T16:22:25.812Z,219
2024-05-09T16:23:40.091Z,213
2024-05-09T16:24:54.329Z,213
2024-05-09T16:26:08.567Z,219
2024-05-09T16:27:21.821Z,219
2024-05-09T16:28:36.059Z,219
2024-05-09T16:29:50.261Z,219
2024-05-09T16:31:04.536Z,213
2024-05-09T16:32:18.737Z,213
2024-05-09T16:33:33.012Z,213
2024-05-09T16:34:47.250Z,213
2024-05-09T16:36:01.488Z,213
2024-05-09T16:37:15.726Z,213
2024-05-09T16:38:29.965Z,213
2024-05-09T16:39:44.203Z,208
2024-05-09T16:40:58.441Z,213
2024-05-09T16:42:12.679Z,208
2024-05-09T16:43:25.934Z,213
2024-05-09T16:44:40.129Z,213
2024-05-09T16:45:54.410Z,219
2024-05-09T16:47:08.648Z,219
2024-05-09T16:48:22.887Z,219
2024-05-09T16:49:37.082Z,213
2024-05-09T16:50:51.363Z,213
2024-05-09T16:52:05.601Z,208
2024-05-09T16:53:19.839Z,213
2024-05-09T16:54:34.077Z,213
2024-05-09T16:55:48.315Z,213
2024-05-09T16:57:02.553Z,213
2024-05-09T16:58:16.791Z,213
2024-05-09T17:00:44.284Z,208
2024-05-09T17:01:58.484Z,208
2024-05-09T17:03:12.760Z,196
2024-05-09T17:04:26.949Z,191
2024-05-09T17:05:41.236Z,191
2024-05-09T17:06:55.474Z,191
2024-05-09T17:08:09.712Z,180
2024-05-09T17:09:23.951Z,174
2024-05-09T17:10:38.189Z,174
2024-05-09T17:11:52.427Z,163
2024-05-09T17:13:06.665Z,163
2024-05-09T17:14:20.851Z,157
2024-05-09T17:15:35.141Z,157
2024-05-09T17:16:48.395Z,157
2024-05-09T17:18:02.633Z,151
2024-05-09T17:19:16.871Z,151
2024-05-09T17:20:31.110Z,151
2024-05-09T17:21:45.348Z,151
2024-05-09T17:22:59.586Z,157
2024-05-09T17:24:13.824Z,157
2024-05-09T17:25:28.062Z,151
2024-05-09T17:26:42.300Z,146
2024-05-09T17:27:56.539Z,140
2024-05-09T17:29:10.777Z,140